Time;durP1;ratioP1;P1;durP2;ratioP2;P2;SDS_P1;SDS_P2;PMS_P1;PMS_P2;Temp;Humidity;BMP_temperature;BMP_pressure;BME280_temperature;BME280_humidity;BME280_pressure;Samples;Min_cycle;Max_cycle;Signal;HPM_P1;HPM_P2
2024/03/11 00:02:04;;;;;;;17.33;13.25;;;;;;;30.13;67.24;101307.81;5059168;28;65566;-31
2024/03/11 00:04:35;;;;;;;19.10;13.67;;;;;;;30.12;67.55;101300.75;5057244;28;69247;-31
2024/03/11 00:07:08;;;;;;;23.30;16.17;;;;;;;30.16;68.07;101312.00;5054046;28;66010;-32
2024/03/11 00:09:44;;;;;;;29.65;18.52;;;;;;;30.19;67.49;101315.13;5059585;28;70210;-32
2024/03/11 00:12:22;;;;;;;35.20;19.13;;;;;;;30.22;69.49;101312.03;5052776;28;66109;-32
2024/03/11 00:14:53;;;;;;;34.92;19.50;;;;;;;30.20;67.55;101316.81;5060828;28;69837;-42
2024/03/11 00:17:23;;;;;;;29.80;19.05;;;;;;;30.23;67.01;101319.13;5054056;28;66803;-30
2024/03/11 00:19:54;;;;;;;32.40;19.43;;;;;;;30.24;66.91;101314.53;5059589;28;69865;-31
2024/03/11 00:22:25;;;;;;;31.38;19.02;;;;;;;30.27;67.77;101314.97;5056262;28;65775;-30
2024/03/11 00:24:56;;;;;;;34.03;20.38;;;;;;;30.27;67.91;101314.97;5055247;28;70495;-31
2024/03/11 00:27:27;;;;;;;35.88;20.02;;;;;;;30.25;67.11;101313.50;5062404;28;65396;-30
2024/03/11 00:29:58;;;;;;;34.08;20.27;;;;;;;30.29;67.88;101317.47;5060443;28;70355;-30
2024/03/11 00:32:30;;;;;;;27.57;18.97;;;;;;;30.27;67.35;101314.97;5059638;28;65274;-30
2024/03/11 00:35:01;;;;;;;;;;;;;;;30.24;68.31;101315.38;5060792;28;69929;-31
2024/03/11 00:37:31;;;;;;;30.23;18.63;;;;;;;30.28;68.03;101308.53;5057572;28;66814;-31
2024/03/11 00:40:05;;;;;;;32.33;19.10;;;;;;;30.32;68.95;101314.34;5050629;28;70609;-31
2024/03/11 00:42:39;;;;;;;31.95;18.13;;;;;;;30.35;67.57;101322.06;5060329;28;66113;-32
2024/03/11 00:45:11;;;;;;;33.40;17.80;;;;;;;30.32;67.62;101317.06;5056858;28;69996;-32
2024/03/11 00:47:42;;;;;;;30.85;18.02;;;;;;;30.34;68.11;101319.53;5054509;28;66512;-32
2024/03/11 00:50:13;;;;;;;24.88;16.98;;;;;;;30.35;68.29;101326.63;5056594;28;69415;-30
2024/03/11 00:52:46;;;;;;;27.30;17.03;;;;;;;30.34;68.69;101323.09;5057516;28;65584;-30
2024/03/11 00:55:17;;;;;;;25.08;16.30;;;;;;;30.43;68.23;101332.69;5059787;28;70124;-31
2024/03/11 00:57:48;;;;;;;34.58;17.08;;;;;;;30.42;68.46;101327.47;5058285;28;66184;-34
2024/03/11 01:00:22;;;;;;;27.45;15.82;;;;;;;30.41;68.36;101333.94;5058703;28;70078;-31
2024/03/11 01:02:53;;;;;;;24.45;14.70;;;;;;;30.43;68.16;101334.56;5058801;28;65758;-31
2024/03/11 01:05:24;;;;;;;22.35;15.13;;;;;;;30.44;68.60;101336.22;5059096;28;70334;-31
2024/03/11 01:07:55;;;;;;;17.98;15.23;;;;;;;30.45;67.96;101343.28;5058800;28;65151;-30
2024/03/11 01:10:25;;;;;;;25.58;14.82;;;;;;;30.45;68.33;101338.72;5060962;28;70430;-30
2024/03/11 01:12:56;;;;;;;32.58;15.80;;;;;;;30.47;68.22;101346.63;5055484;28;65911;-30
2024/03/11 01:15:27;;;;;;;21.65;15.80;;;;;;;30.49;68.33;101349.97;5059683;28;70445;-31
2024/03/11 01:17:58;;;;;;;17.35;14.82;;;;;;;30.50;68.23;101351.63;5059726;28;65328;-31
2024/03/11 01:20:30;;;;;;;21.10;15.30;;;;;;;30.51;67.60;101358.72;5058553;28;69900;-30
2024/03/11 01:23:01;;;;;;;21.38;14.30;;;;;;;30.49;67.80;101350.81;5055064;28;65674;-30
2024/03/11 01:25:33;;;;;;;20.33;14.15;;;;;;;30.55;67.58;101365.38;5058408;28;70050;-30
2024/03/11 01:28:08;;;;;;;16.02;13.77;;;;;;;30.53;67.55;101348.50;5058047;28;66555;-32
2024/03/11 01:30:39;;;;;;;19.90;13.55;;;;;;;30.59;67.31;101358.53;5059286;28;70373;-31
2024/03/11 01:33:11;;;;;;;16.90;14.02;;;;;;;30.59;67.48;101361.25;5058672;28;66421;-32
2024/03/11 01:35:43;;;;;;;20.50;13.50;;;;;;;30.63;67.63;101356.22;5058197;28;70917;-31
2024/03/11 01:38:14;;;;;;;15.27;13.55;;;;;;;30.65;67.38;101360.41;5058586;28;66247;-33
2024/03/11 01:40:46;;;;;;;16.30;13.57;;;;;;;30.64;67.58;101358.72;5056642;28;70111;-31
2024/03/11 01:43:17;;;;;;;20.20;12.95;;;;;;;30.68;67.02;101365.41;5057155;28;65311;-34
2024/03/11 01:45:48;;;;;;;19.13;12.68;;;;;;;30.71;67.04;101364.97;5058070;28;69939;-31
2024/03/11 01:48:19;;;;;;;14.75;13.07;;;;;;;30.73;67.00;101365.63;5051467;28;66218;-30
2024/03/11 01:50:50;;;;;;;19.50;13.10;;;;;;;30.76;66.94;101371.63;5051105;28;71409;-31
2024/03/11 01:53:23;;;;;;;14.35;12.98;;;;;;;30.78;67.14;101369.56;5055902;28;65913;-30
2024/03/11 01:55:55;;;;;;;14.07;12.57;;;;;;;30.81;66.76;101363.75;5053889;28;69656;-32
2024/03/11 01:58:29;;;;;;;18.55;12.90;;;;;;;30.57;67.46;101325.41;5055977;28;66254;-31
2024/03/11 02:01:00;;;;;;;14.80;12.63;;;;;;;30.84;66.86;101358.78;5051898;28;71040;-30
2024/03/11 02:03:31;;;;;;;18.90;12.00;;;;;;;30.87;66.95;101360.22;5057190;28;66531;-31
2024/03/11 02:06:01;;;;;;;19.33;12.63;;;;;;;30.89;66.99;101356.25;5056277;28;69441;-30
2024/03/11 02:08:32;;;;;;;14.48;11.43;;;;;;;30.91;66.58;101362.31;5054311;28;66575;-30
2024/03/11 02:11:02;;;;;;;14.50;11.75;;;;;;;30.93;67.17;101357.50;5055046;28;70602;-30
2024/03/11 02:13:33;;;;;;;14.70;12.40;;;;;;;30.96;66.79;101358.97;5051818;28;65449;-31
2024/03/11 02:16:04;;;;;;;15.48;11.63;;;;;;;30.99;66.84;101361.25;5053067;28;69740;-31
2024/03/11 02:18:35;;;;;;;14.68;11.50;;;;;;;31.02;66.43;101366.25;5058036;28;65265;-30
2024/03/11 02:21:06;;;;;;;13.05;11.80;;;;;;;31.05;66.55;101365.00;5057038;28;69641;-31
2024/03/11 02:23:36;;;;;;;12.10;11.00;;;;;;;31.07;66.80;101369.19;5054750;28;66206;-30
2024/03/11 02:26:07;;;;;;;12.50;11.27;;;;;;;31.10;66.44;101357.09;5054697;28;70238;-34
2024/03/11 02:28:38;;;;;;;13.95;11.63;;;;;;;31.13;66.28;101354.78;5057133;28;66658;-30
2024/03/11 02:31:08;;;;;;;12.35;11.10;;;;;;;31.16;66.40;101357.06;5056041;28;71101;-30
2024/03/11 02:33:39;;;;;;;12.55;11.30;;;;;;;31.19;66.23;101354.97;5056187;28;66665;-32
2024/03/11 02:36:09;;;;;;;11.85;10.85;;;;;;;31.24;65.94;101352.47;5055966;28;69259;-31
2024/03/11 02:38:40;;;;;;;12.57;11.32;;;;;;;31.27;66.11;101347.47;5058714;28;67392;-31
2024/03/11 02:41:10;;;;;;;12.05;10.90;;;;;;;31.27;66.35;101341.22;5059452;28;70646;-31
2024/03/11 02:43:41;;;;;;;12.57;11.27;;;;;;;31.34;66.30;101347.44;5058826;28;67058;-31
2024/03/11 02:46:12;;;;;;;11.65;10.65;;;;;;;31.36;66.27;101337.25;5058631;28;71179;-32
2024/03/11 02:48:43;;;;;;;12.18;10.63;;;;;;;31.37;65.88;101347.03;5059844;28;66899;-32
2024/03/11 02:51:13;;;;;;;13.35;11.13;;;;;;;31.43;65.62;101339.97;5053833;28;71726;-31
2024/03/11 02:53:45;;;;;;;12.57;10.18;;;;;;;31.44;65.82;101342.44;5057534;28;67556;-31
2024/03/11 02:56:16;;;;;;;14.43;10.43;;;;;;;31.49;65.96;101339.94;5059398;28;68778;-30
2024/03/11 02:58:47;;;;;;;12.23;10.95;;;;;;;31.53;65.45;101341.16;5059489;28;66459;-32
2024/03/11 03:01:18;;;;;;;15.53;11.27;;;;;;;31.56;65.35;101335.28;5061135;28;70675;-31
2024/03/11 03:03:49;;;;;;;10.25;9.25;;;;;;;31.59;65.81;101340.31;5053798;28;65844;-31
2024/03/11 03:06:21;;;;;;;11.82;10.63;;;;;;;31.64;65.46;101325.28;5057809;28;69922;-31
2024/03/11 03:08:52;;;;;;;11.05;9.93;;;;;;;31.66;65.82;101323.19;5061786;28;66198;-31
2024/03/11 03:11:22;;;;;;;12.27;10.48;;;;;;;31.69;65.29;101317.31;5060511;28;70655;-31
2024/03/11 03:13:53;;;;;;;11.30;10.10;;;;;;;31.69;65.53;101317.31;5060295;28;66357;-31
2024/03/11 03:16:24;;;;;;;11.65;10.43;;;;;;;31.75;65.48;101319.16;5060918;28;70634;-31
2024/03/11 03:19:00;;;;;;;13.27;10.15;;;;;;;31.75;65.86;101316.44;5061052;28;65692;-31
2024/03/11 03:21:31;;;;;;;10.75;9.85;;;;;;;31.79;65.50;101317.69;5060076;28;70470;-32
2024/03/11 03:24:02;;;;;;;10.75;9.70;;;;;;;31.82;65.00;101309.97;5058997;28;66020;-31
2024/03/11 03:26:33;;;;;;;10.02;9.32;;;;;;;31.84;65.22;101309.72;5057820;28;68755;-31
2024/03/11 03:29:03;;;;;;;10.27;9.25;;;;;;;31.90;65.19;101317.00;5057914;28;66802;-30
2024/03/11 03:31:34;;;;;;;10.73;9.82;;;;;;;31.92;65.17;101295.94;5058991;28;69508;-32
2024/03/11 03:34:04;;;;;;;10.32;9.50;;;;;;;31.95;65.04;101298.22;5058508;28;65838;-31
2024/03/11 03:36:35;;;;;;;9.95;9.15;;;;;;;31.99;65.18;101298.63;5058916;28;70084;-31
2024/03/11 03:39:08;;;;;;;10.05;9.07;;;;;;;32.00;65.03;101303.81;5059055;28;66747;-32
2024/03/11 03:41:39;;;;;;;10.82;9.80;;;;;;;32.02;65.33;101285.44;5054828;28;68995;-31
2024/03/11 03:44:09;;;;;;;10.25;9.32;;;;;;;31.93;64.62;101267.78;5060120;28;66591;-31
2024/03/11 03:46:40;;;;;;;10.90;9.88;;;;;;;32.04;64.90;101277.09;5059797;28;68908;-31
2024/03/11 03:49:11;;;;;;;10.10;9.27;;;;;;;32.10;64.83;101278.09;5058114;28;66939;-30
2024/03/11 03:51:42;;;;;;;10.15;9.23;;;;;;;32.14;64.75;101273.88;5061339;28;69600;-32
2024/03/11 03:54:12;;;;;;;10.38;9.32;;;;;;;32.11;64.70;101266.19;5061784;28;65680;-31
2024/03/11 03:56:42;;;;;;;13.43;9.38;;;;;;;32.21;64.60;101271.97;5056456;28;70862;-31
2024/03/11 03:59:13;;;;;;;10.07;9.13;;;;;;;32.20;64.83;101273.00;5062119;28;65612;-32
2024/03/11 04:01:43;;;;;;;10.40;9.40;;;;;;;32.25;64.72;101271.28;5058648;28;70141;-33
2024/03/11 04:04:14;;;;;;;9.30;8.60;;;;;;;32.28;64.73;101265.41;5059478;28;66235;-30
2024/03/11 04:06:45;;;;;;;10.57;9.48;;;;;;;32.29;64.69;101247.28;5059036;28;70045;-31
2024/03/11 04:09:15;;;;;;;9.90;8.95;;;;;;;32.35;64.54;101245.56;5054176;28;66256;-31
2024/03/11 04:11:46;;;;;;;9.23;8.43;;;;;;;32.33;64.76;101242.22;5056407;28;70417;-33
2024/03/11 04:14:17;;;;;;;10.20;8.88;;;;;;;32.38;64.45;101247.81;5059492;28;66639;-31
2024/03/11 04:16:48;;;;;;;9.32;8.55;;;;;;;32.39;64.92;101238.63;5058773;28;70430;-31
2024/03/11 04:19:19;;;;;;;8.75;8.05;;;;;;;32.42;64.57;101244.41;5056420;28;65489;-32
2024/03/11 04:21:50;;;;;;;9.40;8.55;;;;;;;32.44;64.66;101227.91;5058789;28;69648;-32
2024/03/11 04:24:21;;;;;;;9.85;8.93;;;;;;;32.47;64.58;101222.91;5058687;28;65904;-32
2024/03/11 04:26:55;;;;;;;9.00;8.20;;;;;;;32.51;64.51;101222.44;5059987;28;71647;-30
2024/03/11 04:29:29;;;;;;;9.90;7.78;;;;;;;32.53;64.61;101214.91;5060881;28;66750;-31
2024/03/11 04:32:00;;;;;;;9.20;8.40;;;;;;;32.55;64.34;101210.09;5058136;28;69973;-31
2024/03/11 04:34:32;;;;;;;8.75;7.97;;;;;;;32.55;64.35;101204.66;5050308;28;65914;-30
2024/03/11 04:37:03;;;;;;;8.35;7.75;;;;;;;32.61;64.47;101206.47;5054936;28;69662;-32
2024/03/11 04:39:33;;;;;;;9.00;8.30;;;;;;;32.62;64.36;101199.97;5054756;28;66352;-31
2024/03/11 04:42:04;;;;;;;8.15;7.45;;;;;;;32.65;64.48;101185.94;5058619;28;69908;-31
2024/03/11 04:44:35;;;;;;;8.15;7.43;;;;;;;32.67;64.40;101179.25;5058435;28;66272;-32
2024/03/11 04:47:06;;;;;;;9.32;7.90;;;;;;;32.65;64.37;101175.09;5058155;28;69801;-31
2024/03/11 04:49:37;;;;;;;8.63;7.93;;;;;;;32.71;64.36;101169.59;5060715;28;65611;-33
2024/03/11 04:52:08;;;;;;;7.82;7.22;;;;;;;32.74;64.31;101167.50;5058119;28;70185;-33
2024/03/11 04:54:39;;;;;;;8.63;7.90;;;;;;;32.76;64.34;101163.47;5058123;28;66525;-32
2024/03/11 04:57:10;;;;;;;8.10;7.40;;;;;;;32.82;63.97;101159.00;5058599;28;69705;-31
2024/03/11 04:59:40;;;;;;;8.38;7.55;;;;;;;32.84;64.08;101151.47;5059551;28;66384;-33
2024/03/11 05:02:11;;;;;;;7.72;7.10;;;;;;;32.84;64.03;101138.72;5055755;28;70083;-34
2024/03/11 05:04:42;;;;;;;10.52;8.18;;;;;;;32.87;64.04;101146.41;5059173;28;66220;-32
2024/03/11 05:07:12;;;;;;;8.23;7.65;;;;;;;32.91;63.71;101144.09;5058549;28;70151;-34
2024/03/11 05:09:43;;;;;;;7.28;6.78;;;;;;;32.92;64.24;101138.41;5058069;28;66362;-33
2024/03/11 05:12:13;;;;;;;9.38;8.50;;;;;;;32.96;63.87;101127.06;5046111;28;70909;-33
2024/03/11 05:14:44;;;;;;;8.90;8.07;;;;;;;32.98;64.00;101124.97;5057579;28;66758;-31
2024/03/11 05:17:15;;;;;;;7.93;7.25;;;;;;;33.00;63.97;101112.03;5058788;28;69646;-32
2024/03/11 05:19:48;;;;;;;8.20;7.50;;;;;;;33.04;63.81;101107.78;5058606;28;65522;-36
2024/03/11 05:22:19;;;;;;;7.30;6.90;;;;;;;33.07;63.75;101097.28;5042058;28;70433;-31
2024/03/11 05:24:51;;;;;;;7.50;6.87;;;;;;;33.10;63.89;101090.56;5054925;28;67121;-32
2024/03/11 05:27:21;;;;;;;7.85;7.00;;;;;;;33.10;63.96;101085.13;5058480;28;70181;-32
2024/03/11 05:29:52;;;;;;;7.93;7.20;;;;;;;33.17;63.51;101079.59;5055936;28;66196;-33
2024/03/11 05:32:23;;;;;;;10.35;7.50;;;;;;;33.19;63.65;101069.31;5058235;28;70660;-32
2024/03/11 05:34:53;;;;;;;7.35;6.82;;;;;;;33.17;63.62;101064.09;5058282;28;66490;-31
2024/03/11 05:37:26;;;;;;;7.72;7.20;;;;;;;33.26;63.57;101072.75;5056392;28;69550;-34
2024/03/11 05:39:59;;;;;;;7.68;6.82;;;;;;;33.28;63.48;101057.88;5055973;28;66028;-32
2024/03/11 05:42:30;;;;;;;8.05;7.30;;;;;;;33.33;63.44;101060.72;5058260;28;70421;-31
2024/03/11 05:45:02;;;;;;;7.72;6.53;;;;;;;33.30;63.77;101041.34;5053605;28;65612;-34
2024/03/11 05:47:32;;;;;;;;;;;;;;;33.25;63.06;101050.19;5057096;28;69736;-32
2024/03/11 05:50:03;;;;;;;7.20;6.70;;;;;;;33.36;63.23;101041.22;5052047;28;65563;-32
2024/03/11 05:52:34;;;;;;;;;;;;;;;33.33;63.01;101049.03;5054598;28;69629;-32
2024/03/11 05:55:11;;;;;;;7.07;6.50;;;;;;;33.45;63.27;101043.59;5058771;28;66343;-32
2024/03/11 05:57:48;;;;;;;6.93;6.47;;;;;;;33.50;63.27;101035.56;5056231;28;69307;-32
2024/03/11 06:00:19;;;;;;;7.63;6.93;;;;;;;33.53;63.09;101032.41;5059045;28;65736;-31
2024/03/11 06:02:51;;;;;;;;;;;;;;;33.45;62.91;101016.41;5056623;28;70044;-34
2024/03/11 06:05:22;;;;;;;7.17;6.57;;;;;;;33.55;63.04;101016.69;5055013;28;65509;-33
2024/03/11 06:07:52;;;;;;;7.22;6.68;;;;;;;33.57;63.17;101020.84;5058728;28;70319;-32
2024/03/11 06:10:23;;;;;;;6.57;6.20;;;;;;;33.64;62.92;101015.28;5058959;28;66354;-31
2024/03/11 06:12:54;;;;;;;7.18;6.57;;;;;;;33.66;62.57;101007.72;5060939;28;70259;-31
2024/03/11 06:15:27;;;;;;;7.13;6.60;;;;;;;33.70;62.78;101003.44;5062871;28;67503;-31
2024/03/11 06:17:58;;;;;;;7.72;7.13;;;;;;;33.73;63.01;100992.09;5048921;28;69692;-31
2024/03/11 06:20:29;;;;;;;7.38;6.82;;;;;;;33.75;62.50;100989.97;5062832;28;66032;-31
2024/03/11 06:23:02;;;;;;;8.18;7.50;;;;;;;33.78;62.91;100989.47;5061126;28;70109;-33
2024/03/11 06:25:33;;;;;;;7.03;6.53;;;;;;;33.81;62.40;100978.13;5054144;28;66562;-31
2024/03/11 06:28:04;;;;;;;7.40;7.00;;;;;;;33.85;62.51;100977.63;5057547;28;70338;-31
2024/03/11 06:30:35;;;;;;;7.63;7.03;;;;;;;33.91;62.59;100968.53;5062019;28;65981;-31
2024/03/11 06:33:09;;;;;;;6.93;6.50;;;;;;;33.91;62.34;100960.38;5059453;28;70195;-31
2024/03/11 06:35:40;;;;;;;6.70;6.30;;;;;;;33.96;62.38;100965.91;5058833;28;66338;-32
2024/03/11 06:38:10;;;;;;;7.38;6.85;;;;;;;33.98;62.58;100950.16;5073508;28;69814;-31
2024/03/11 06:40:43;;;;;;;7.07;6.50;;;;;;;34.02;62.64;100954.09;5061310;28;65829;-31
2024/03/11 06:43:14;;;;;;;8.25;7.57;;;;;;;34.05;62.39;100961.81;5061549;28;70217;-31
2024/03/11 06:45:46;;;;;;;7.67;6.83;;;;;;;34.05;62.26;100953.63;5060697;28;66083;-31
2024/03/11 06:48:16;;;;;;;;;;;;;;;34.03;61.77;100942.13;5061238;28;70425;-31
2024/03/11 06:50:47;;;;;;;7.45;6.75;;;;;;;34.16;62.00;100946.50;5062083;28;65115;-33
2024/03/11 06:53:17;;;;;;;6.82;6.43;;;;;;;34.20;62.21;100940.31;5061085;28;70193;-32
2024/03/11 06:55:49;;;;;;;7.28;6.78;;;;;;;34.22;62.23;100932.75;5049634;28;65724;-32
2024/03/11 06:58:20;;;;;;;7.82;7.07;;;;;;;34.25;62.33;100924.09;5061848;28;69914;-32
2024/03/11 07:00:51;;;;;;;7.75;7.13;;;;;;;34.33;62.00;100930.22;5050230;28;66691;-32
2024/03/11 07:03:23;;;;;;;6.63;6.22;;;;;;;34.37;61.92;100926.75;5060827;28;70066;-31
2024/03/11 07:05:53;;;;;;;7.32;6.72;;;;;;;34.43;61.92;100911.34;5061530;28;66635;-33
2024/03/11 07:08:27;;;;;;;8.15;7.40;;;;;;;34.48;62.02;100916.88;5056582;28;70067;-31
2024/03/11 07:11:00;;;;;;;7.32;6.82;;;;;;;34.52;61.75;100906.31;5056994;28;66755;-32
2024/03/11 07:13:32;;;;;;;7.50;6.25;;;;;;;34.57;62.01;100904.53;5059948;28;70343;-31
2024/03/11 07:16:06;;;;;;;7.43;6.83;;;;;;;34.60;61.71;100901.34;5060432;28;66691;-36
2024/03/11 07:18:37;;;;;;;6.40;6.00;;;;;;;34.66;61.65;100894.91;5060626;28;69785;-31
2024/03/11 07:21:09;;;;;;;6.82;6.22;;;;;;;34.72;61.50;100898.56;5060735;28;66207;-35
2024/03/11 07:23:40;;;;;;;7.03;6.53;;;;;;;34.75;61.83;100887.16;5056939;28;70003;-31
2024/03/11 07:26:11;;;;;;;6.40;6.00;;;;;;;34.82;61.82;100887.00;5059479;28;66733;-31
2024/03/11 07:28:42;;;;;;;6.90;6.40;;;;;;;34.87;61.48;100878.91;5051600;28;69553;-31
2024/03/11 07:31:13;;;;;;;6.90;6.27;;;;;;;34.93;61.57;100880.63;5061008;28;65843;-34
2024/03/11 07:33:47;;;;;;;6.65;6.25;;;;;;;34.98;61.19;100878.00;5060719;28;70356;-35
2024/03/11 07:36:18;;;;;;;7.82;7.03;;;;;;;35.04;61.66;100866.09;5058592;28;66007;-31
2024/03/11 07:38:49;;;;;;;6.68;6.18;;;;;;;35.07;61.52;100860.16;5056619;28;68974;-34
2024/03/11 07:41:20;;;;;;;6.40;6.00;;;;;;;35.14;61.40;100858.09;5061567;28;66483;-34
2024/03/11 07:43:51;;;;;;;7.05;6.28;;;;;;;35.21;61.53;100848.91;5058817;28;69974;-31
2024/03/11 07:46:21;;;;;;;6.50;6.00;;;;;;;35.27;60.81;100856.09;5060872;28;66502;-32
2024/03/11 07:48:54;;;;;;;6.60;6.00;;;;;;;35.32;60.82;100862.44;5059761;28;69561;-32
2024/03/11 07:51:25;;;;;;;6.40;6.00;;;;;;;35.39;61.01;100856.81;5060617;28;66291;-32
2024/03/11 07:53:55;;;;;;;7.30;5.78;;;;;;;35.45;61.18;100855.81;5061164;28;69458;-31
2024/03/11 07:56:26;;;;;;;6.20;5.80;;;;;;;35.51;61.34;100832.97;5059990;28;66553;-35
2024/03/11 07:58:57;;;;;;;11.82;6.55;;;;;;;35.56;60.73;100833.06;5060658;28;70537;-32
2024/03/11 08:01:28;;;;;;;7.10;6.27;;;;;;;35.64;61.19;100829.06;5060029;28;66676;-32
2024/03/11 08:03:59;;;;;;;5.97;5.47;;;;;;;35.70;60.79;100819.88;5059471;28;70316;-31
2024/03/11 08:06:30;;;;;;;6.07;5.57;;;;;;;35.79;61.01;100825.69;5058251;28;65735;-32
2024/03/11 08:09:01;;;;;;;6.30;5.88;;;;;;;35.85;60.90;100830.13;5059137;28;70354;-33
2024/03/11 08:11:32;;;;;;;7.50;6.80;;;;;;;35.91;60.56;100826.41;5057159;28;66292;-32
2024/03/11 08:14:04;;;;;;;6.00;5.57;;;;;;;35.91;61.16;100814.63;5060019;28;70899;-32
2024/03/11 08:16:34;;;;;;;6.20;5.70;;;;;;;36.06;60.31;100827.66;5059333;28;64906;-32
2024/03/11 08:19:05;;;;;;;6.33;5.93;;;;;;;36.09;60.86;100817.03;5054432;28;70048;-32
2024/03/11 08:21:36;;;;;;;5.90;5.40;;;;;;;36.18;60.71;100820.13;5060060;28;66052;-33
2024/03/11 08:24:07;;;;;;;8.15;6.35;;;;;;;36.23;60.60;100812.00;5056901;28;70445;-32
2024/03/11 08:26:38;;;;;;;6.20;5.43;;;;;;;36.31;60.01;100814.25;5054667;28;65271;-32
2024/03/11 08:29:09;;;;;;;7.33;5.80;;;;;;;36.35;59.78;100815.38;5060168;28;70169;-31
2024/03/11 08:31:40;;;;;;;6.32;5.82;;;;;;;36.40;59.92;100823.63;5058799;28;66191;-32
2024/03/11 08:34:11;;;;;;;6.63;5.83;;;;;;;36.49;59.75;100821.22;5057072;28;70253;-32
2024/03/11 08:36:42;;;;;;;5.85;5.38;;;;;;;36.52;59.56;100811.69;5059953;28;66414;-32
2024/03/11 08:39:14;;;;;;;6.30;5.90;;;;;;;36.60;59.75;100816.69;5057898;28;69462;-32
2024/03/11 08:41:45;;;;;;;6.07;5.55;;;;;;;36.65;60.02;100816.75;5058947;28;65937;-32
2024/03/11 08:44:15;;;;;;;7.72;5.18;;;;;;;36.74;59.67;100817.91;5058547;28;70544;-32
2024/03/11 08:46:46;;;;;;;5.10;4.60;;;;;;;36.74;59.77;100806.97;5057755;28;67781;-31
2024/03/11 08:49:17;;;;;;;5.85;5.35;;;;;;;36.86;59.56;100814.97;5057548;28;70598;-33
2024/03/11 08:51:48;;;;;;;5.95;5.45;;;;;;;36.93;59.63;100818.31;5058630;28;67101;-32
2024/03/11 08:54:19;;;;;;;6.07;5.57;;;;;;;37.00;59.47;100820.81;5055727;28;69699;-31
2024/03/11 08:56:50;;;;;;;5.27;4.77;;;;;;;37.07;59.03;100815.97;5053430;28;65151;-32
2024/03/11 08:59:20;;;;;;;5.25;4.60;;;;;;;37.14;59.35;100816.56;5052756;28;70291;-36
2024/03/11 09:01:54;;;;;;;5.20;4.90;;;;;;;37.22;58.79;100816.06;5057200;28;66436;-32
2024/03/11 09:04:24;;;;;;;5.35;4.95;;;;;;;37.28;58.94;100825.94;5058464;28;70457;-34
2024/03/11 09:06:57;;;;;;;7.95;4.93;;;;;;;37.37;58.65;100822.69;5054758;28;66333;-32
2024/03/11 09:09:28;;;;;;;5.47;4.97;;;;;;;37.40;59.15;100827.63;5056495;28;69789;-32
2024/03/11 09:12:00;;;;;;;6.20;5.03;;;;;;;37.44;58.34;100820.53;5059528;28;66030;-33
2024/03/11 09:14:32;;;;;;;5.15;4.75;;;;;;;37.47;58.65;100820.00;5059070;28;70483;-33
2024/03/11 09:17:03;;;;;;;5.25;4.90;;;;;;;37.54;59.20;100831.56;5058315;28;66529;-33
2024/03/11 09:19:34;;;;;;;5.57;4.87;;;;;;;37.60;58.98;100829.66;5058718;28;70293;-33
2024/03/11 09:22:05;;;;;;;5.38;4.97;;;;;;;37.63;58.12;100823.66;5040344;28;65501;-34
2024/03/11 09:24:36;;;;;;;6.68;5.38;;;;;;;37.52;58.17;100828.25;5057620;28;70226;-31
2024/03/11 09:27:07;;;;;;;8.53;4.97;;;;;;;37.58;58.24;100832.66;5058116;28;66542;-34
2024/03/11 09:29:38;;;;;;;6.35;5.68;;;;;;;37.56;58.38;100838.41;5055914;28;69994;-35
2024/03/11 09:32:08;;;;;;;6.18;5.65;;;;;;;37.61;58.23;100832.13;5046649;28;66190;-33
2024/03/11 09:34:39;;;;;;;7.18;5.75;;;;;;;37.66;58.09;100840.34;5059739;28;69990;-34
2024/03/11 09:37:10;;;;;;;5.77;5.30;;;;;;;37.58;58.56;100835.38;5047397;28;66227;-31
2024/03/11 09:39:40;;;;;;;7.28;5.55;;;;;;;37.55;58.20;100823.06;5047723;28;70418;-32
2024/03/11 09:42:13;;;;;;;6.22;5.47;;;;;;;37.62;58.44;100833.78;5059446;28;66566;-32
2024/03/11 09:44:44;;;;;;;6.45;5.75;;;;;;;37.73;57.80;100831.91;5044394;28;70475;-33
2024/03/11 09:47:16;;;;;;;11.52;5.72;;;;;;;37.73;58.58;100840.94;5059203;28;65789;-32
2024/03/11 09:49:47;;;;;;;8.60;5.90;;;;;;;37.77;58.20;100839.28;5058883;28;70072;-32
2024/03/11 09:52:20;;;;;;;;;;;;;;;37.78;57.87;100842.88;5045332;28;65353;-32
2024/03/11 09:54:53;;;;;;;7.03;5.78;;;;;;;37.79;58.17;100850.81;5058830;28;69815;-33
2024/03/11 09:57:26;;;;;;;6.40;5.43;;;;;;;37.75;57.92;100849.72;5057596;28;66115;-33
2024/03/11 10:00:00;;;;;;;8.95;6.07;;;;;;;37.59;58.61;100822.56;5057803;28;70257;-31
2024/03/11 10:02:48;;;;;;;9.68;5.53;;;;;;;37.76;58.54;100856.00;5058820;28;65894;-32
2024/03/11 10:05:22;;;;;;;9.80;5.47;;;;;;;37.74;58.71;100859.00;5044437;28;71012;-32
2024/03/11 10:07:53;;;;;;;6.25;5.15;;;;;;;37.63;59.60;100861.97;5057154;28;65943;-33
2024/03/11 10:10:25;;;;;;;7.95;4.80;;;;;;;37.64;59.24;100863.59;5052958;28;70320;-31
2024/03/11 10:12:58;;;;;;;8.90;6.18;;;;;;;37.56;59.35;100856.75;5057615;28;65982;-33
2024/03/11 10:15:32;;;;;;;12.85;6.53;;;;;;;37.58;59.56;100865.50;5057803;28;70068;-33
2024/03/11 10:18:09;;;;;;;6.38;5.78;;;;;;;37.54;59.74;100867.13;5056793;28;65226;-33
2024/03/11 10:20:41;;;;;;;10.27;5.75;;;;;;;37.66;59.67;100869.63;5056291;28;70197;-36
2024/03/11 10:23:18;;;;;;;9.65;5.90;;;;;;;37.34;59.36;100830.34;5054142;28;66140;-33
2024/03/11 10:25:51;;;;;;;7.38;6.50;;;;;;;37.58;59.65;100865.50;5057200;28;69616;-32
2024/03/11 10:28:42;;;;;;;8.85;6.38;;;;;;;37.56;59.96;100870.44;5057266;28;65140;-32
2024/03/11 10:31:40;;;;;;;13.07;6.67;;;;;;;37.51;59.49;100873.13;5052016;28;70083;-32
2024/03/11 10:34:13;;;;;;;11.05;6.75;;;;;;;37.48;60.07;100876.38;5053071;28;67306;-33
2024/03/11 10:36:44;;;;;;;10.15;6.97;;;;;;;37.47;59.67;100880.19;5057048;28;69322;-33
2024/03/11 10:41:54;;;;;;;9.63;7.05;;;;;;;37.31;60.28;100877.38;5055294;28;70424;-32
2024/03/11 10:44:29;;;;;;;;;;;;;;;37.33;60.27;100886.16;5050595;28;66157;-37
2024/03/11 10:47:17;;;;;;;10.80;7.22;;;;;;;37.21;60.43;100877.31;5056494;28;69947;-33
2024/03/11 10:49:49;;;;;;;9.88;8.15;;;;;;;37.12;61.23;100878.91;5050152;28;66486;-31
2024/03/11 10:52:22;;;;;;;16.63;7.30;;;;;;;37.07;61.18;100876.13;5049041;28;70637;-33
2024/03/11 10:54:54;;;;;;;12.65;8.50;;;;;;;36.91;60.55;100856.84;5051983;28;66272;-32
2024/03/11 10:57:43;;;;;;;13.32;7.93;;;;;;;37.03;60.88;100875.84;5055991;28;70360;-31
2024/03/11 11:00:22;;;;;;;13.35;7.40;;;;;;;37.00;60.48;100887.28;5061499;28;66758;-31
2024/03/11 11:03:13;;;;;;;9.82;8.48;;;;;;;36.93;61.43;100886.66;5059078;28;70237;-32
2024/03/11 11:06:14;;;;;;;10.50;7.20;;;;;;;36.66;60.99;100864.84;5057790;28;65683;-32
2024/03/11 11:08:48;;;;;;;8.52;7.25;;;;;;;36.89;60.70;100889.09;5059217;28;70298;-33
2024/03/11 11:11:19;;;;;;;11.15;7.68;;;;;;;36.83;60.60;100881.94;5061383;28;66413;-32
2024/03/11 11:13:55;;;;;;;8.23;7.20;;;;;;;36.62;61.04;100864.53;5059087;28;69085;-33
2024/03/11 11:16:26;;;;;;;8.68;7.70;;;;;;;36.72;60.79;100879.38;5060243;28;66557;-33
2024/03/11 11:18:59;;;;;;;9.98;7.03;;;;;;;36.73;61.21;100895.53;5054293;28;70057;-32
2024/03/11 11:21:32;;;;;;;9.90;7.18;;;;;;;36.58;61.02;100873.50;5060938;28;66362;-33
2024/03/11 11:24:32;;;;;;;8.52;7.65;;;;;;;36.61;61.57;100892.13;5060780;28;69932;-31
2024/03/11 11:27:07;;;;;;;8.88;7.80;;;;;;;36.68;60.75;100890.00;5053378;28;65350;-33
2024/03/11 11:29:37;;;;;;;18.33;7.50;;;;;;;36.65;61.26;100896.00;5058561;28;69802;-36
2024/03/11 11:32:13;;;;;;;12.95;8.15;;;;;;;36.58;61.16;100893.50;5060047;28;66242;-33
2024/03/11 11:34:49;;;;;;;8.68;7.50;;;;;;;36.58;61.19;100901.69;5038820;28;69739;-36
2024/03/11 11:37:21;;;;;;;14.30;8.43;;;;;;;36.58;61.58;100892.66;5059428;28;66270;-34
2024/03/11 11:39:51;;;;;;;11.75;8.40;;;;;;;36.55;61.22;100901.34;5063166;28;69886;-35
2024/03/11 11:42:40;;;;;;;9.13;8.30;;;;;;;36.44;60.86;100912.19;5060703;28;66652;-36
2024/03/11 11:45:14;;;;;;;16.98;9.63;;;;;;;36.47;61.24;100914.41;5043424;28;70491;-34
2024/03/11 11:47:45;;;;;;;9.82;8.82;;;;;;;36.44;61.54;100906.72;5060819;28;66473;-36